GOOY/DKR METAR and TAF weather

Enter ICAO airport designator
Station Type Date Time Source
GOOY METAR 2022/01/23 12:00 UTC NOAA

GOOY 231200Z 08008KT CAVOK 34/03 Q1013


Station Type Date Time Source
GOOY Decoded METAR 2022/01/23 12:00 UTC NOAA

Dakar / Yoff, Senegal (GOOY) 14-44N 017-30W 24M
Jan 23, 2022 - 07:00 AM EST / 2022.01.23 1200 UTC
Wind: from the E (080 degrees) at 9 MPH (8 KT):0
Visibility: greater than 7 mile(s):0
Temperature: 93 F (34 C)
Dew Point: 37 F (3 C)
Relative Humidity: 14%
Pressure (altimeter): 29.91 in. Hg (1013 hPa)
ob: GOOY 231200Z 08008KT CAVOK 34/03 Q1013
cycle: 12

Station Type Date Time Source
GOOY TAF 2022/01/23 12:31 UTC NOAA

TAF GOOY 231100Z 2312/2418 04010KT CAVOK

Example: see airport list